Time;durP1;ratioP1;P1;durP2;ratioP2;P2;SDS_P1;SDS_P2;PMS_P1;PMS_P2;Temp;Humidity;BMP_temperature;BMP_pressure;BME280_temperature;BME280_humidity;BME280_pressure;Samples;Min_cycle;Max_cycle;Signal;HPM_P1;HPM_P2
2021/06/15 00:00:38;;;;;;;16.02;9.40;;;;;;;16.31;91.98;99982.16;1681002;84;21109;-81
2021/06/15 00:03:05;;;;;;;13.03;8.65;;;;;;;16.32;92.04;99983.00;1680971;83;21137;-80
2021/06/15 00:05:33;;;;;;;11.63;8.48;;;;;;;16.29;91.93;99975.23;1681044;84;21065;-83
2021/06/15 00:07:59;;;;;;;14.90;10.53;;;;;;;16.27;92.08;99985.10;1683363;84;21086;-83
2021/06/15 00:10:27;;;;;;;14.87;10.05;;;;;;;16.25;92.18;99984.34;1682943;84;21370;-84
2021/06/15 00:12:55;;;;;;;13.48;10.08;;;;;;;16.23;92.29;99977.78;1682964;84;21070;-84
2021/06/15 00:15:21;;;;;;;14.47;9.18;;;;;;;16.22;92.28;99981.86;1683706;85;21062;-85
2021/06/15 00:17:51;;;;;;;11.68;9.58;;;;;;;16.20;92.26;99972.67;1683455;85;21086;-83
2021/06/15 00:20:20;;;;;;;13.03;9.98;;;;;;;16.20;92.35;99968.69;1683390;85;21149;-83
2021/06/15 00:22:47;;;;;;;12.07;8.98;;;;;;;16.19;92.60;99968.30;1683515;85;21022;-84
2021/06/15 00:25:15;;;;;;;10.05;9.05;;;;;;;16.17;92.58;99969.34;1683717;85;21057;-86
2021/06/15 00:27:42;;;;;;;11.55;9.00;;;;;;;16.14;92.57;99969.91;1683243;85;21007;-85
2021/06/15 00:30:13;;;;;;;13.18;8.80;;;;;;;16.12;92.73;99965.16;1683476;85;21484;-85
2021/06/15 00:32:40;;;;;;;11.83;8.88;;;;;;;16.10;92.69;99968.42;1671872;85;21058;-83
2021/06/15 00:35:10;;;;;;;8.68;7.78;;;;;;;16.05;92.59;99963.84;1665834;84;21109;-81
2021/06/15 00:37:37;;;;;;;9.43;7.05;;;;;;;16.01;92.76;99967.67;1660974;84;21134;-84
2021/06/15 00:40:06;;;;;;;8.75;5.37;;;;;;;15.99;92.81;99968.23;1663880;85;21129;-81
2021/06/15 00:42:33;;;;;;;10.90;7.60;;;;;;;15.97;93.07;99972.78;1620890;86;21160;-82
2021/06/15 00:45:00;;;;;;;7.80;7.08;;;;;;;15.94;93.09;99971.63;1668438;85;22153;-76
2021/06/15 00:47:27;;;;;;;9.65;6.83;;;;;;;15.92;93.19;99972.22;1692199;83;21121;-78
2021/06/15 00:49:54;;;;;;;11.78;8.25;;;;;;;15.88;93.54;99974.20;1684862;84;21057;-75
2021/06/15 00:52:22;;;;;;;12.25;8.60;;;;;;;15.87;93.88;99968.97;1687965;82;21576;-75
2021/06/15 00:54:50;;;;;;;9.30;8.40;;;;;;;15.67;94.04;99943.62;1666387;85;21109;-75
2021/06/15 00:57:20;;;;;;;12.37;8.88;;;;;;;15.82;94.35;99972.39;1687854;85;21144;-74
2021/06/15 00:59:47;;;;;;;10.38;9.05;;;;;;;15.76;94.72;99968.77;1689633;83;21797;-75
2021/06/15 01:02:15;;;;;;;13.45;10.13;;;;;;;15.73;95.00;99969.81;1689809;83;21038;-75
2021/06/15 01:04:42;;;;;;;10.35;9.20;;;;;;;15.70;95.05;99968.66;1689162;84;21034;-75
2021/06/15 01:07:44;;;;;;;13.40;9.63;;;;;;;15.64;95.06;99971.19;1689446;84;21090;-75
2021/06/15 01:10:18;;;;;;;11.73;9.05;;;;;;;15.60;94.97;99974.12;1689552;84;21071;-74
2021/06/15 01:13:15;;;;;;;10.93;9.03;;;;;;;15.51;95.20;99973.75;1689037;84;21941;-76
2021/06/15 01:16:07;;;;;;;13.95;10.23;;;;;;;15.46;95.42;99973.17;1686734;84;21022;-73
2021/06/15 01:18:46;;;;;;;11.40;9.95;;;;;;;15.42;95.63;99970.80;1699001;82;21125;-74
2021/06/15 01:21:13;;;;;;;14.63;10.25;;;;;;;15.38;96.06;99975.89;1703603;83;21058;-75
2021/06/15 01:24:01;;;;;;;13.45;10.08;;;;;;;15.33;96.25;99972.67;1703957;84;21073;-76
2021/06/15 01:26:51;;;;;;;16.75;11.15;;;;;;;15.28;96.41;99980.42;1704247;82;21175;-75
2021/06/15 01:29:38;;;;;;;13.08;10.35;;;;;;;15.23;96.54;99983.82;1703986;84;21089;-75
2021/06/15 01:32:11;;;;;;;15.18;11.55;;;;;;;15.19;97.08;99980.11;1663640;84;21052;-76
2021/06/15 01:34:43;;;;;;;14.78;11.38;;;;;;;15.15;97.58;99979.42;1657181;86;21523;-74
2021/06/15 01:37:22;;;;;;;18.02;11.73;;;;;;;15.16;98.09;99982.48;1657396;86;21099;-77
2021/06/15 01:39:52;;;;;;;14.93;11.35;;;;;;;15.16;98.21;99978.50;1656765;85;21848;-76
2021/06/15 01:42:34;;;;;;;12.85;11.45;;;;;;;15.15;98.31;99976.77;1656881;86;21069;-76
2021/06/15 01:45:21;;;;;;;16.48;11.15;;;;;;;15.15;98.39;99980.75;1655234;86;25857;-78
2021/06/15 01:48:19;;;;;;;12.82;10.95;;;;;;;15.13;98.42;99986.61;1693271;84;21058;-77
2021/06/15 01:50:47;;;;;;;13.13;11.53;;;;;;;15.12;98.80;99982.27;1704251;83;21113;-75
2021/06/15 01:53:18;;;;;;;15.15;12.20;;;;;;;15.12;98.97;99986.72;1704391;84;21115;-75
2021/06/15 01:55:52;;;;;;;15.30;12.10;;;;;;;15.13;99.28;99989.27;1683864;84;21161;-74
2021/06/15 01:58:22;;;;;;;25.62;12.53;;;;;;;15.15;99.61;99984.73;1704019;83;21104;-75
2021/06/15 02:00:50;;;;;;;14.00;11.60;;;;;;;15.19;99.93;99982.77;1684644;84;21777;-76
2021/06/15 02:03:18;;;;;;;16.52;12.47;;;;;;;15.22;100.00;99990.05;1704408;84;21082;-77
2021/06/15 02:05:53;;;;;;;14.50;11.40;;;;;;;15.23;100.00;99987.80;1704952;83;21117;-79
2021/06/15 02:08:38;;;;;;;13.70;11.33;;;;;;;15.26;100.00;99992.91;1704010;84;21624;-77
2021/06/15 02:11:06;;;;;;;12.98;11.45;;;;;;;15.27;99.82;99986.66;1706037;83;21047;-79
2021/06/15 02:13:48;;;;;;;18.35;11.30;;;;;;;15.26;99.66;99984.95;1669359;84;21105;-76
2021/06/15 02:16:17;;;;;;;14.10;11.55;;;;;;;15.28;99.75;99988.38;1686306;83;21630;-74
2021/06/15 02:18:54;;;;;;;15.83;12.23;;;;;;;15.28;99.65;99985.72;1704255;84;21161;-75
2021/06/15 02:21:35;;;;;;;19.40;12.78;;;;;;;15.30;99.62;99988.30;1704212;84;21113;-74
2021/06/15 02:24:03;;;;;;;18.73;12.30;;;;;;;15.31;99.73;99985.53;1704129;83;21105;-75
2021/06/15 02:26:31;;;;;;;15.00;12.37;;;;;;;15.37;99.83;99985.66;1704353;84;21584;-75
2021/06/15 02:28:59;;;;;;;24.40;13.10;;;;;;;15.40;99.77;99982.81;1704271;83;21026;-76
2021/06/15 02:31:34;;;;;;;13.43;10.60;;;;;;;15.45;99.74;99976.75;1680854;84;21182;-77
2021/06/15 02:34:06;;;;;;;10.58;7.67;;;;;;;15.50;99.71;99979.13;1669271;85;21127;-75
2021/06/15 02:36:35;;;;;;;17.55;9.88;;;;;;;15.57;99.67;99981.80;1650385;85;21135;-76
2021/06/15 02:39:13;;;;;;;14.05;9.03;;;;;;;15.61;99.33;99979.34;1670258;85;21115;-73
2021/06/15 02:41:42;;;;;;;9.58;8.30;;;;;;;15.66;99.00;99979.91;1670001;85;21526;-75
2021/06/15 02:44:15;;;;;;;10.08;9.03;;;;;;;15.71;98.94;99985.86;1670240;85;21135;-74
2021/06/15 02:46:43;;;;;;;13.65;11.22;;;;;;;15.76;98.78;99987.36;1670319;85;21159;-78
2021/06/15 02:49:15;;;;;;;17.10;12.20;;;;;;;15.81;98.66;99987.95;1685114;85;21041;-78
2021/06/15 02:51:54;;;;;;;12.70;11.00;;;;;;;15.89;98.77;99994.96;1688396;85;21073;-76
2021/06/15 02:54:38;;;;;;;14.13;10.98;;;;;;;15.96;98.65;99997.62;1687600;83;21100;-76
2021/06/15 02:57:06;;;;;;;14.10;10.08;;;;;;;16.04;98.44;99998.02;1687749;83;21170;-78
2021/06/15 02:59:33;;;;;;;11.88;9.88;;;;;;;16.14;98.14;99995.63;1688087;85;21145;-76
2021/06/15 03:02:00;;;;;;;14.85;10.13;;;;;;;16.22;97.99;99989.83;1700990;83;21081;-76
2021/06/15 03:04:30;;;;;;;13.98;9.43;;;;;;;16.32;97.78;99994.48;1703778;84;21073;-75
2021/06/15 03:06:58;;;;;;;9.73;6.92;;;;;;;16.43;97.58;99992.97;1704447;84;21018;-74
2021/06/15 03:09:25;;;;;;;9.98;6.95;;;;;;;16.53;97.31;99992.26;1704155;84;21154;-74
2021/06/15 03:12:10;;;;;;;10.68;7.10;;;;;;;16.65;97.10;99992.42;1687397;84;21117;-73
2021/06/15 03:14:39;;;;;;;11.55;9.93;;;;;;;16.76;96.74;99985.94;1666652;84;21025;-75
2021/06/15 03:17:07;;;;;;;14.15;10.23;;;;;;;16.90;96.19;99989.91;1651206;85;21056;-75
2021/06/15 03:19:58;;;;;;;14.65;10.10;;;;;;;17.05;95.91;99991.20;1670242;85;21067;-78
2021/06/15 03:23:03;;;;;;;10.78;9.68;;;;;;;17.18;95.25;99982.77;1682492;84;21179;-73
2021/06/15 03:25:33;;;;;;;12.47;9.28;;;;;;;17.36;94.52;99992.17;1692428;82;21710;-75
2021/06/15 03:28:11;;;;;;;11.53;9.08;;;;;;;17.54;93.54;99991.89;1700027;82;21506;-75
2021/06/15 03:30:42;;;;;;;11.00;7.87;;;;;;;17.70;93.04;99992.55;1699421;83;21065;-76
2021/06/15 03:33:12;;;;;;;14.00;8.88;;;;;;;17.88;92.25;99988.28;1703426;83;21591;-76
2021/06/15 03:35:41;;;;;;;11.20;9.40;;;;;;;18.07;91.67;99991.34;1688806;83;21295;-76
2021/06/15 03:38:08;;;;;;;9.88;8.60;;;;;;;18.26;90.72;99980.71;1698684;83;21610;-75
2021/06/15 03:40:40;;;;;;;10.70;8.48;;;;;;;18.49;89.68;99992.39;1708711;82;21066;-76
2021/06/15 03:43:08;;;;;;;13.45;8.88;;;;;;;18.70;88.79;99990.82;1708923;83;21043;-77
2021/06/15 03:45:39;;;;;;;13.90;8.20;;;;;;;18.92;87.73;99990.14;1702916;82;21109;-75
2021/06/15 03:48:06;;;;;;;;;;;;;;;19.13;86.66;99984.17;1706766;83;21211;-74
2021/06/15 03:50:34;;;;;;;11.28;8.18;;;;;;;19.38;85.71;99989.36;1703010;83;20204;-74
2021/06/15 03:53:03;;;;;;;14.28;8.05;;;;;;;19.62;84.72;99984.44;1706861;82;21058;-73
2021/06/15 03:55:30;;;;;;;10.15;8.40;;;;;;;19.86;83.69;99983.91;1707236;83;21627;-72
2021/06/15 03:57:58;;;;;;;13.20;8.38;;;;;;;20.10;82.55;99987.80;1700388;83;21122;-75
2021/06/15 04:00:25;;;;;;;8.10;7.00;;;;;;;20.35;81.32;99983.67;1688296;83;21800;-73
2021/06/15 04:02:55;;;;;;;11.53;7.00;;;;;;;20.58;80.19;99980.02;1707791;83;21018;-84
2021/06/15 04:05:26;;;;;;;7.53;5.87;;;;;;;20.84;78.88;99984.56;1709447;83;21097;-83
2021/06/15 04:08:02;;;;;;;12.65;8.10;;;;;;;21.10;77.64;99986.45;1708712;83;21089;-84
2021/06/15 04:10:29;;;;;;;19.32;7.15;;;;;;;21.38;76.15;99990.33;1709812;82;21073;-84
2021/06/15 04:13:00;;;;;;;9.68;7.30;;;;;;;21.65;74.54;99982.77;1706002;83;21158;-83
2021/06/15 04:15:27;;;;;;;8.83;7.05;;;;;;;21.92;73.40;99983.07;1706727;83;21108;-85
2021/06/15 04:17:57;;;;;;;8.28;6.70;;;;;;;22.20;71.57;99988.70;1707766;82;21147;-84
2021/06/15 04:20:29;;;;;;;8.93;7.17;;;;;;;22.43;69.07;99983.17;1701716;83;21060;-84
2021/06/15 04:22:56;;;;;;;7.08;5.75;;;;;;;22.67;67.59;99990.88;1706537;82;21061;-85
2021/06/15 04:25:31;;;;;;;6.20;5.20;;;;;;;22.89;65.25;99988.43;1701904;83;21175;-85
2021/06/15 04:28:00;;;;;;;6.78;5.03;;;;;;;23.08;62.99;99988.49;1709374;82;21014;-84
2021/06/15 04:30:29;;;;;;;19.27;5.37;;;;;;;23.25;60.35;99992.30;1708412;82;21060;-80
2021/06/15 04:33:00;;;;;;;8.43;5.58;;;;;;;23.44;60.14;99995.47;1705990;83;21086;-87
2021/06/15 04:35:39;;;;;;;5.22;4.47;;;;;;;23.68;58.63;99997.72;1685525;84;21056;-86
2021/06/15 04:38:33;;;;;;;7.95;4.80;;;;;;;23.85;56.74;99996.14;1698978;83;21902;-85
2021/06/15 04:41:14;;;;;;;7.05;5.33;;;;;;;24.05;57.08;99992.40;1693118;82;21089;-87
2021/06/15 04:43:59;;;;;;;7.10;4.53;;;;;;;24.32;54.89;99996.13;1692346;83;21080;-82
2021/06/15 04:46:37;;;;;;;8.60;4.87;;;;;;;24.44;55.11;99993.58;1703646;83;21017;-82
2021/06/15 04:49:30;;;;;;;9.70;4.35;;;;;;;24.61;55.13;99997.84;1696070;82;21566;-85
2021/06/15 04:52:01;;;;;;;9.68;5.10;;;;;;;24.76;55.09;99993.65;1704285;84;21698;-77
2021/06/15 04:54:33;;;;;;;6.05;4.87;;;;;;;24.98;54.37;99988.81;1702914;84;21071;-76
2021/06/15 04:57:03;;;;;;;7.97;4.62;;;;;;;25.12;53.25;99990.96;1689972;83;21094;-78
2021/06/15 04:59:30;;;;;;;6.85;4.50;;;;;;;25.19;52.83;99990.75;1697544;84;21094;-77
2021/06/15 05:01:59;;;;;;;5.03;4.00;;;;;;;25.29;52.37;99983.92;1694602;82;21065;-77
2021/06/15 05:04:26;;;;;;;10.75;4.35;;;;;;;25.44;52.64;99989.08;1696985;83;21140;-77
2021/06/15 05:06:54;;;;;;;5.97;4.28;;;;;;;25.66;52.73;99992.30;1696600;83;21046;-78
2021/06/15 05:09:25;;;;;;;6.78;4.60;;;;;;;25.93;52.24;99988.64;1674105;83;21054;-77
2021/06/15 05:11:54;;;;;;;6.62;4.22;;;;;;;26.08;50.49;99989.72;1697868;84;21894;-78
2021/06/15 05:14:28;;;;;;;8.73;4.37;;;;;;;26.10;50.68;99986.36;1697117;84;21073;-77
2021/06/15 05:16:56;;;;;;;6.72;4.17;;;;;;;26.19;50.29;99994.52;1704190;84;21106;-77
2021/06/15 05:19:24;;;;;;;5.05;4.00;;;;;;;26.28;50.79;99992.20;1704583;82;21105;-77
2021/06/15 05:22:05;;;;;;;5.90;4.28;;;;;;;26.38;49.58;99986.15;1695094;82;21596;-77
2021/06/15 05:24:53;;;;;;;;;;;;;;;26.51;49.50;99981.66;1672669;84;21130;-77
2021/06/15 05:27:32;;;;;;;6.22;3.55;;;;;;;26.68;49.65;99980.70;1626485;88;20140;-78
2021/06/15 05:30:00;;;;;;;8.38;4.10;;;;;;;26.94;49.33;99978.40;1700329;84;21167;-78
2021/06/15 05:32:28;;;;;;;5.87;3.45;;;;;;;27.19;47.38;99983.33;1704238;84;21073;-73
2021/06/15 05:34:55;;;;;;;7.00;3.35;;;;;;;27.29;48.00;99982.70;1673850;83;21165;-77
2021/06/15 05:37:23;;;;;;;8.38;4.37;;;;;;;27.51;47.25;99987.09;1669103;86;21088;-78
2021/06/15 05:39:50;;;;;;;9.93;4.08;;;;;;;27.67;46.84;99987.06;1668985;84;21057;-77
2021/06/15 05:42:17;;;;;;;6.85;4.17;;;;;;;27.78;46.49;99990.77;1670462;84;21124;-76
2021/06/15 05:44:44;;;;;;;7.62;4.40;;;;;;;27.83;45.92;99989.77;1670675;84;21029;-79
2021/06/15 05:48:06;;;;;;;5.25;4.12;;;;;;;27.89;46.53;99994.19;1788226;77;23341;-76
2021/06/15 05:50:33;;;;;;;9.48;3.98;;;;;;;27.96;45.98;99993.31;1743850;81;21635;-75
2021/06/15 05:53:00;;;;;;;5.35;3.42;;;;;;;28.12;46.48;99995.65;1755349;81;21631;-77
2021/06/15 05:55:27;;;;;;;9.10;6.50;;;;;;;28.31;44.73;99999.81;1755322;79;21613;-76
2021/06/15 05:57:55;;;;;;;10.32;7.40;;;;;;;28.29;44.68;99997.78;1756917;80;21045;-76
2021/06/15 06:00:22;;;;;;;7.62;3.72;;;;;;;28.29;45.15;99992.37;1754323;80;21060;-76
2021/06/15 06:02:50;;;;;;;6.50;3.27;;;;;;;28.45;44.86;99995.00;1722320;83;21080;-78
2021/06/15 06:10:30;;;;;;;5.47;3.90;;;;;;;29.04;43.64;99982.34;1715471;83;21618;-77
2021/06/15 06:12:58;;;;;;;6.20;3.30;;;;;;;29.24;43.84;99978.65;1711326;83;21080;-76
2021/06/15 06:15:27;;;;;;;9.38;3.60;;;;;;;29.51;42.42;99979.12;1714872;83;21517;-77
2021/06/15 06:17:54;;;;;;;5.35;3.15;;;;;;;29.61;42.68;99974.26;1704773;83;21584;-76
2021/06/15 06:20:22;;;;;;;6.45;4.00;;;;;;;29.73;43.10;99977.42;1684385;83;21064;-80
2021/06/15 06:22:49;;;;;;;7.53;3.47;;;;;;;29.89;42.52;99976.73;1717655;83;21559;-77
2021/06/15 06:25:17;;;;;;;5.08;3.10;;;;;;;30.05;42.34;99970.28;1715798;82;21110;-73
2021/06/15 06:27:44;;;;;;;8.25;3.50;;;;;;;30.26;41.74;99970.91;1712512;83;21073;-80
2021/06/15 06:30:12;;;;;;;6.80;3.42;;;;;;;30.40;41.36;99976.52;1710374;83;21101;-83
2021/06/15 06:32:39;;;;;;;6.25;4.53;;;;;;;30.50;40.84;99974.33;1714610;83;21571;-82
2021/06/15 06:35:07;;;;;;;5.42;3.47;;;;;;;30.79;40.53;99973.95;1715145;83;21525;-81
2021/06/15 06:37:36;;;;;;;4.90;3.40;;;;;;;31.02;38.84;99971.09;1711700;83;21116;-82
2021/06/15 06:40:04;;;;;;;13.53;3.77;;;;;;;30.88;39.40;99967.39;1693014;84;21108;-83
2021/06/15 06:42:31;;;;;;;4.42;2.98;;;;;;;30.93;39.37;99974.44;1693515;84;22334;-82
2021/06/15 06:44:58;;;;;;;8.68;4.03;;;;;;;30.95;39.91;99975.09;1696284;83;20983;-86
2021/06/15 06:47:26;;;;;;;7.25;3.60;;;;;;;30.88;39.76;99974.19;1685435;84;21620;-85
2021/06/15 06:49:52;;;;;;;9.98;3.70;;;;;;;30.64;40.02;99973.45;1656172;85;21067;-86
2021/06/15 06:52:19;;;;;;;10.08;3.77;;;;;;;30.55;40.11;99980.03;1740725;81;21554;-85
2021/06/15 06:54:46;;;;;;;4.90;3.58;;;;;;;30.37;40.16;99976.88;1742730;82;22336;-85
2021/06/15 06:57:13;;;;;;;11.40;3.50;;;;;;;30.28;40.63;99970.20;1742799;82;21533;-84
2021/06/15 06:59:40;;;;;;;6.33;3.47;;;;;;;30.27;41.48;99975.29;1707253;84;21034;-83
2021/06/15 07:02:09;;;;;;;5.60;3.85;;;;;;;30.44;39.87;99962.36;1739770;81;21533;-87
2021/06/15 07:04:38;;;;;;;6.00;3.62;;;;;;;30.47;39.89;99966.57;1734405;82;21061;-85
2021/06/15 07:07:05;;;;;;;4.78;3.40;;;;;;;30.43;40.71;99963.91;1739103;82;21155;-85
2021/06/15 07:09:33;;;;;;;6.75;3.80;;;;;;;30.40;39.88;99969.20;1703870;84;21268;-84
2021/06/15 07:12:01;;;;;;;5.05;2.95;;;;;;;30.34;40.12;99969.11;1740938;81;21048;-83
2021/06/15 07:14:28;;;;;;;5.87;3.02;;;;;;;30.25;40.20;99970.56;1739625;81;21058;-82
2021/06/15 07:16:55;;;;;;;6.35;3.52;;;;;;;30.27;39.94;99965.78;1738296;82;20959;-84
2021/06/15 07:19:22;;;;;;;6.62;3.85;;;;;;;30.54;40.61;99953.91;1740797;81;21104;-84
2021/06/15 07:21:50;;;;;;;7.05;3.40;;;;;;;30.89;39.87;99957.66;1738742;81;21065;-84
2021/06/15 07:24:17;;;;;;;4.05;3.12;;;;;;;31.18;38.78;99963.19;1741801;82;21035;-85
2021/06/15 07:26:44;;;;;;;6.67;3.12;;;;;;;31.21;37.98;99954.63;1741686;82;21066;-84
2021/06/15 07:29:11;;;;;;;13.72;3.33;;;;;;;31.18;37.76;99957.22;1741943;81;21069;-86
2021/06/15 07:31:38;;;;;;;5.25;3.40;;;;;;;31.02;39.49;99958.33;1720169;82;21146;-84
2021/06/15 07:34:05;;;;;;;6.78;3.15;;;;;;;31.06;38.52;99954.19;1738064;81;21092;-84
2021/06/15 07:36:34;;;;;;;5.47;3.10;;;;;;;30.93;37.62;99954.05;1744687;82;20977;-83
2021/06/15 07:39:03;;;;;;;5.20;3.00;;;;;;;30.93;37.62;99954.05;1744103;82;21140;-85
2021/06/15 07:41:31;;;;;;;11.70;3.25;;;;;;;30.87;38.71;99948.02;1743350;80;21112;-83
2021/06/15 07:43:58;;;;;;;7.67;3.55;;;;;;;30.99;39.32;99951.06;1742220;82;21318;-83
2021/06/15 07:46:24;;;;;;;9.15;3.10;;;;;;;31.55;37.43;99949.29;1742362;82;21061;-84
2021/06/15 07:48:53;;;;;;;8.25;3.35;;;;;;;31.55;37.43;99949.29;1736601;80;21081;-83
2021/06/15 07:51:21;;;;;;;7.78;3.27;;;;;;;31.42;37.59;99946.45;1742124;82;21109;-84
2021/06/15 07:53:48;;;;;;;9.00;3.75;;;;;;;31.38;37.59;99936.14;1742514;82;21022;-83
2021/06/15 07:56:16;;;;;;;9.08;3.25;;;;;;;31.38;37.98;99940.22;1742114;82;21131;-83
2021/06/15 07:58:43;;;;;;;5.12;3.62;;;;;;;31.39;37.87;99935.95;1742895;81;21045;-82
2021/06/15 08:01:10;;;;;;;6.62;3.77;;;;;;;31.29;37.85;99938.15;1745112;82;20994;-86
2021/06/15 08:03:38;;;;;;;22.13;3.62;;;;;;;31.23;38.48;99939.79;1742456;82;21045;-83
2021/06/15 08:06:06;;;;;;;6.87;3.27;;;;;;;31.10;38.29;99935.06;1743912;81;20993;-84
2021/06/15 08:08:32;;;;;;;15.28;3.62;;;;;;;30.97;39.10;99934.09;1744399;82;21114;-84
2021/06/15 08:11:03;;;;;;;7.55;3.35;;;;;;;31.19;38.94;99929.50;1742333;81;21051;-84
2021/06/15 08:13:30;;;;;;;4.72;3.00;;;;;;;31.50;38.52;99935.97;1738968;82;21444;-83
2021/06/15 08:15:59;;;;;;;5.87;3.42;;;;;;;31.64;38.01;99934.19;1729746;82;21100;-87
2021/06/15 08:18:28;;;;;;;7.22;3.45;;;;;;;31.81;37.61;99928.73;1733382;82;21108;-85
2021/06/15 08:20:55;;;;;;;7.03;3.15;;;;;;;32.06;37.17;99934.56;1740366;81;23031;-83
2021/06/15 08:23:23;;;;;;;5.00;3.70;;;;;;;32.12;37.55;99924.23;1706965;83;21007;-83
2021/06/15 08:25:50;;;;;;;7.00;3.05;;;;;;;32.32;37.79;99918.01;1740007;80;21116;-83
2021/06/15 08:28:17;;;;;;;5.62;3.20;;;;;;;32.58;37.73;99915.94;1733903;82;21527;-82
2021/06/15 08:30:46;;;;;;;13.40;3.62;;;;;;;32.85;37.43;99911.89;1737483;81;21034;-83
2021/06/15 08:33:15;;;;;;;8.43;4.17;;;;;;;32.93;35.79;99918.52;1738037;82;21168;-85
2021/06/15 08:35:42;;;;;;;6.35;3.25;;;;;;;32.62;35.98;99908.17;1739136;82;21089;-86
2021/06/15 08:38:09;;;;;;;4.75;2.98;;;;;;;32.34;36.77;99901.77;1724256;81;21180;-84
2021/06/15 08:40:37;;;;;;;9.53;3.37;;;;;;;32.32;36.88;99901.13;1739389;81;21675;-85
2021/06/15 08:43:04;;;;;;;4.50;2.98;;;;;;;32.59;36.36;99900.72;1734353;81;21025;-85
2021/06/15 08:45:32;;;;;;;3.65;2.77;;;;;;;32.82;36.35;99902.23;1741444;81;21113;-85
2021/06/15 08:47:59;;;;;;;5.03;2.80;;;;;;;32.82;34.95;99891.33;1739633;82;21057;-84
2021/06/15 08:50:27;;;;;;;7.17;2.80;;;;;;;32.84;34.89;99902.87;1733192;82;21680;-86
2021/06/15 08:52:54;;;;;;;7.53;3.20;;;;;;;32.78;35.79;99897.74;1742153;82;21077;-85
2021/06/15 08:55:21;;;;;;;4.35;3.15;;;;;;;32.85;35.48;99895.53;1733237;81;21616;-85
2021/06/15 08:58:28;;;;;;;3.02;2.72;;;;;;;33.06;34.63;99895.39;1727361;81;21124;-79
2021/06/15 09:00:54;;;;;;;3.90;2.80;;;;;;;33.20;33.15;99891.60;1655583;82;21133;-82
2021/06/15 09:03:21;;;;;;;5.17;2.90;;;;;;;33.31;33.18;99887.91;1736912;80;21112;-83
2021/06/15 09:05:48;;;;;;;8.23;3.00;;;;;;;33.05;33.48;99888.77;1734050;82;21588;-83
2021/06/15 09:08:15;;;;;;;7.17;2.75;;;;;;;32.87;34.37;99887.45;1732747;81;21059;-82
2021/06/15 09:10:47;;;;;;;3.92;2.83;;;;;;;33.02;35.01;99885.91;1739598;80;20994;-82
2021/06/15 09:13:38;;;;;;;2.92;2.45;;;;;;;33.34;34.93;99879.32;1723378;81;21055;-83
2021/06/15 09:16:26;;;;;;;4.00;2.40;;;;;;;33.75;32.78;99879.56;1728873;82;21599;-82
2021/06/15 09:18:57;;;;;;;2.83;2.45;;;;;;;33.72;31.93;99886.83;1737908;82;21719;-81
2021/06/15 09:21:36;;;;;;;9.73;3.58;;;;;;;33.30;33.00;99883.52;1728788;82;21037;-82
2021/06/15 09:24:24;;;;;;;4.87;2.83;;;;;;;33.09;33.68;99874.50;1727134;82;21028;-82
2021/06/15 09:27:06;;;;;;;4.78;2.47;;;;;;;33.01;34.19;99877.39;1722613;82;21249;-82
2021/06/15 09:29:50;;;;;;;3.40;2.22;;;;;;;33.42;33.23;99877.72;1725602;82;21988;-79
2021/06/15 09:32:30;;;;;;;8.35;2.12;;;;;;;33.96;32.22;99872.47;1721680;81;21051;-82
2021/06/15 09:35:03;;;;;;;5.00;2.70;;;;;;;34.23;31.09;99859.56;1727367;82;21087;-77
2021/06/15 09:37:46;;;;;;;3.45;2.10;;;;;;;34.28;31.75;99864.37;1723826;81;21315;-78
2021/06/15 09:40:20;;;;;;;7.60;2.35;;;;;;;34.35;32.28;99867.91;1695347;83;21066;-80
2021/06/15 09:43:10;;;;;;;7.25;2.70;;;;;;;34.52;30.73;99863.28;1724018;82;21065;-77
2021/06/15 09:45:43;;;;;;;10.30;2.25;;;;;;;34.70;29.79;99860.67;1720719;82;21592;-79
2021/06/15 09:48:30;;;;;;;5.50;2.15;;;;;;;34.93;28.43;99847.77;1731862;82;22493;-80
2021/06/15 09:51:16;;;;;;;4.03;2.27;;;;;;;35.04;28.56;99849.77;1722644;82;21156;-78
2021/06/15 09:53:48;;;;;;;11.60;2.55;;;;;;;35.26;28.68;99850.22;1727989;81;21038;-80
2021/06/15 09:56:15;;;;;;;2.98;1.72;;;;;;;35.05;27.97;99842.40;1723669;82;21745;-79
2021/06/15 09:58:50;;;;;;;6.05;1.90;;;;;;;34.36;26.77;99836.77;1693995;83;21126;-79
2021/06/15 10:01:40;;;;;;;5.12;2.40;;;;;;;33.88;27.48;99841.28;1697680;83;21051;-77
2021/06/15 10:04:13;;;;;;;;;;;;;;;33.87;28.88;99840.13;1677951;84;21156;-78
2021/06/15 10:06:52;;;;;;;5.85;2.15;;;;;;;33.42;29.37;99845.80;1679966;84;20148;-79
2021/06/15 10:09:26;;;;;;;3.08;1.80;;;;;;;33.36;30.42;99851.27;1681950;84;21596;-79
2021/06/15 10:11:56;;;;;;;4.15;2.00;;;;;;;33.82;28.45;99843.00;1678800;84;21238;-78
2021/06/15 10:14:23;;;;;;;;;;;;;;;34.26;28.42;99837.26;1684804;83;21120;-77
2021/06/15 10:16:50;;;;;;;7.62;2.20;;;;;;;34.65;27.36;99844.09;1681448;84;21149;-77
2021/06/15 10:19:17;;;;;;;8.18;2.42;;;;;;;34.79;28.80;99844.30;1684900;84;21073;-77
2021/06/15 10:21:44;;;;;;;4.47;2.25;;;;;;;34.75;28.17;99841.69;1739223;81;21073;-77
2021/06/15 10:24:12;;;;;;;4.05;2.47;;;;;;;34.73;26.73;99847.91;1732084;82;21049;-79
2021/06/15 10:26:40;;;;;;;2.80;2.03;;;;;;;34.38;28.14;99842.86;1719223;82;21594;-77
2021/06/15 10:29:12;;;;;;;5.83;2.40;;;;;;;34.21;28.78;99838.95;1730694;82;21121;-74
2021/06/15 10:31:41;;;;;;;7.42;2.52;;;;;;;34.01;29.46;99834.41;1718419;82;21079;-75
2021/06/15 10:34:08;;;;;;;5.75;2.87;;;;;;;33.96;30.72;99830.63;1721094;81;21039;-74
2021/06/15 10:36:42;;;;;;;2.30;2.10;;;;;;;34.29;30.52;99839.25;1736385;82;21022;-78
2021/06/15 10:39:17;;;;;;;3.27;2.20;;;;;;;34.65;29.53;99842.73;1722478;82;21100;-74
2021/06/15 10:41:45;;;;;;;4.97;2.00;;;;;;;34.81;28.47;99833.98;1693765;83;21150;-73
2021/06/15 10:44:13;;;;;;;4.00;1.95;;;;;;;34.64;28.31;99832.83;1682025;83;21149;-77
2021/06/15 10:46:42;;;;;;;5.75;2.22;;;;;;;34.06;27.52;99840.05;1684478;84;21096;-73
2021/06/15 10:49:13;;;;;;;4.85;2.42;;;;;;;33.37;28.34;99836.59;1731927;81;21049;-75
2021/06/15 10:51:55;;;;;;;7.08;2.37;;;;;;;33.00;29.50;99836.17;1744258;80;21017;-74
2021/06/15 10:54:40;;;;;;;5.30;2.37;;;;;;;33.13;29.81;99828.02;1737481;81;21071;-75
2021/06/15 10:57:28;;;;;;;2.80;2.25;;;;;;;33.22;29.44;99829.98;1736403;81;21045;-77
2021/06/15 11:00:14;;;;;;;6.00;2.37;;;;;;;33.14;29.81;99831.05;1737620;81;21102;-80
2021/06/15 11:02:46;;;;;;;3.67;2.10;;;;;;;33.10;30.26;99832.52;1740996;81;21082;-80
2021/06/15 11:05:40;;;;;;;3.77;1.90;;;;;;;33.48;30.30;99820.09;1711445;81;21077;-80
2021/06/15 11:08:25;;;;;;;4.83;2.15;;;;;;;34.07;28.42;99808.09;1714049;83;21727;-81
2021/06/15 11:11:05;;;;;;;4.17;1.90;;;;;;;33.96;27.97;99811.01;1685166;84;21065;-83
2021/06/15 11:13:46;;;;;;;7.62;2.30;;;;;;;33.70;28.64;99809.21;1705999;83;21063;-78
2021/06/15 11:16:40;;;;;;;4.30;2.00;;;;;;;33.68;28.51;99803.66;1707281;83;21517;-77
2021/06/15 11:19:19;;;;;;;6.42;2.10;;;;;;;33.81;27.38;99799.52;1704886;83;21101;-75
2021/06/15 11:22:01;;;;;;;4.62;2.00;;;;;;;33.59;28.07;99794.86;1677900;84;21864;-77
2021/06/15 11:24:44;;;;;;;4.80;2.50;;;;;;;33.28;28.39;99790.11;1671132;83;21068;-76
2021/06/15 11:27:19;;;;;;;4.08;1.98;;;;;;;33.06;29.75;99784.91;1681832;84;21055;-76
2021/06/15 11:29:48;;;;;;;2.95;1.87;;;;;;;33.33;30.33;99773.92;1677877;84;21674;-76
2021/06/15 11:32:28;;;;;;;2.05;1.80;;;;;;;33.69;29.74;99763.03;1678026;83;21065;-76
2021/06/15 11:35:04;;;;;;;4.33;1.85;;;;;;;34.15;28.49;99759.23;1687481;84;21257;-76
2021/06/15 11:37:47;;;;;;;4.62;2.10;;;;;;;34.23;26.67;99758.95;1676323;84;21098;-75
2021/06/15 11:40:27;;;;;;;3.27;2.10;;;;;;;33.81;27.94;99759.91;1683522;83;21531;-78
2021/06/15 11:43:12;;;;;;;5.10;2.25;;;;;;;33.36;28.86;99755.24;1671479;84;21670;-76
2021/06/15 11:45:44;;;;;;;5.58;2.30;;;;;;;33.11;30.18;99760.55;1678471;84;21086;-76
2021/06/15 11:48:35;;;;;;;2.87;2.15;;;;;;;32.87;30.80;99767.99;1683943;84;21744;-78
2021/06/15 11:51:05;;;;;;;5.83;2.50;;;;;;;32.56;30.95;99758.05;1671362;84;21077;-76
2021/06/15 11:53:39;;;;;;;4.50;1.98;;;;;;;32.22;32.21;99752.22;1683392;83;21596;-79
2021/06/15 11:56:15;;;;;;;2.65;2.22;;;;;;;32.04;32.78;99751.44;1711599;83;21524;-76
2021/06/15 11:58:44;;;;;;;4.17;2.60;;;;;;;31.96;32.60;99748.92;1709316;83;21120;-77